Time;durP1;ratioP1;P1;durP2;ratioP2;P2;SDS_P1;SDS_P2;PMS_P1;PMS_P2;Temp;Humidity;BMP_temperature;BMP_pressure;BME280_temperature;BME280_humidity;BME280_pressure;Samples;Min_cycle;Max_cycle;Signal;HPM_P1;HPM_P2
2021/10/25 00:00:43;;;;;;;5.03;4.30;;;23.70;53.80;;;;;;5028980;28;20295;-64
2021/10/25 00:03:13;;;;;;;4.78;4.38;;;23.70;54.00;;;;;;5028986;28;20199;-64
2021/10/25 00:05:44;;;;;;;5.30;4.80;;;23.70;54.10;;;;;;5028596;28;20259;-58
2021/10/25 00:08:15;;;;;;;5.95;4.60;;;23.70;54.20;;;;;;5035584;28;20573;-55
2021/10/25 00:10:47;;;;;;;5.43;4.88;;;23.80;54.10;;;;;;5038637;28;20226;-54
2021/10/25 00:13:17;;;;;;;5.53;4.93;;;23.80;54.00;;;;;;5016654;28;20206;-64
2021/10/25 00:15:49;;;;;;;7.43;4.97;;;23.80;54.00;;;;;;5028402;28;20299;-58
2021/10/25 00:18:20;;;;;;;5.00;4.50;;;23.90;54.00;;;;;;5011664;28;20228;-57
2021/10/25 00:20:50;;;;;;;4.90;4.43;;;23.90;54.00;;;;;;5030440;28;20254;-56
2021/10/25 00:23:21;;;;;;;4.72;4.32;;;23.90;53.80;;;;;;5028011;28;20616;-65
2021/10/25 00:25:51;;;;;;;5.45;4.45;;;24.00;53.80;;;;;;5028004;28;20262;-49
2021/10/25 00:28:22;;;;;;;6.15;4.93;;;24.00;53.60;;;;;;5028019;28;20232;-65
2021/10/25 00:30:54;;;;;;;4.95;4.53;;;24.00;53.60;;;;;;5027700;28;20316;-54
2021/10/25 00:33:25;;;;;;;5.00;4.60;;;24.00;53.50;;;;;;5027194;28;20219;-64
2021/10/25 00:35:57;;;;;;;5.30;4.80;;;24.10;53.40;;;;;;5027976;28;20235;-56
2021/10/25 00:38:27;;;;;;;5.07;4.68;;;24.10;53.30;;;;;;5028891;28;20195;-66
2021/10/25 00:40:58;;;;;;;6.18;4.70;;;24.10;53.30;;;;;;5012039;28;20255;-55
2021/10/25 00:43:28;;;;;;;6.55;5.07;;;24.20;53.40;;;;;;5029537;28;20231;-58
2021/10/25 00:46:01;;;;;;;7.47;5.00;;;24.20;53.40;;;;;;5041696;28;20227;-65
2021/10/25 00:48:32;;;;;;;5.90;4.72;;;24.20;53.40;;;;;;5041608;28;20265;-66
2021/10/25 00:51:02;;;;;;;6.63;5.50;;;24.20;53.20;;;;;;5031586;28;20842;-64
2021/10/25 00:53:33;;;;;;;5.65;4.90;;;24.30;53.20;;;;;;5027228;28;20224;-53
2021/10/25 00:56:06;;;;;;;7.90;5.40;;;24.30;53.20;;;;;;5019210;28;20223;-64
2021/10/25 00:58:37;;;;;;;6.50;4.70;;;24.40;53.20;;;;;;5025356;28;20196;-60
2021/10/25 01:01:10;;;;;;;6.45;5.13;;;24.40;53.20;;;;;;5026754;28;20648;-63
2021/10/25 01:03:40;;;;;;;7.65;5.30;;;24.40;53.20;;;;;;5012200;28;20192;-58
2021/10/25 01:06:11;;;;;;;7.38;5.28;;;24.50;53.10;;;;;;5017052;28;20251;-59
2021/10/25 01:08:42;;;;;;;7.65;5.13;;;24.50;53.00;;;;;;5028633;28;20621;-62
2021/10/25 01:11:13;;;;;;;5.07;4.60;;;24.50;52.80;;;;;;5028203;28;20260;-46
2021/10/25 01:13:45;;;;;;;6.78;5.00;;;24.60;53.30;;;;;;5024989;28;20255;-56
2021/10/25 01:16:17;;;;;;;5.82;5.20;;;24.60;52.50;;;;;;5021154;28;20235;-61
2021/10/25 01:18:49;;;;;;;6.28;4.88;;;24.60;52.20;;;;;;5020087;28;20295;-59
2021/10/25 01:21:22;;;;;;;6.40;4.97;;;24.60;52.10;;;;;;5029476;28;20220;-57
2021/10/25 01:23:54;;;;;;;7.05;4.70;;;24.60;52.00;;;;;;5029180;28;20283;-47
2021/10/25 01:26:25;;;;;;;6.30;5.10;;;24.60;52.00;;;;;;5027632;28;20230;-57
2021/10/25 01:28:56;;;;;;;5.95;5.35;;;24.70;51.90;;;;;;5030244;28;20234;-64
2021/10/25 01:31:27;;;;;;;10.18;5.07;;;24.70;51.90;;;;;;5020636;28;20647;-65
2021/10/25 01:33:57;;;;;;;6.28;5.50;;;24.70;51.90;;;;;;5022497;28;20239;-63
2021/10/25 01:36:29;;;;;;;9.15;4.85;;;24.70;52.00;;;;;;5030782;28;20244;-63
2021/10/25 01:39:00;;;;;;;5.93;4.95;;;24.70;52.00;;;;;;5021301;28;20783;-64
2021/10/25 01:41:31;;;;;;;5.95;5.20;;;24.80;52.20;;;;;;5010825;28;20224;-63
2021/10/25 01:44:01;;;;;;;5.60;5.00;;;24.80;52.20;;;;;;5021426;28;20630;-62
2021/10/25 01:46:32;;;;;;;6.72;5.28;;;24.80;52.20;;;;;;5020755;28;20665;-55
2021/10/25 01:49:02;;;;;;;7.90;5.80;;;24.80;52.00;;;;;;5020923;28;20282;-63
2021/10/25 01:51:35;;;;;;;5.85;5.35;;;24.90;52.10;;;;;;5045513;28;20251;-62
2021/10/25 01:54:06;;;;;;;7.90;5.25;;;24.80;51.90;;;;;;5031972;28;20224;-58
2021/10/25 01:56:37;;;;;;;6.78;6.13;;;24.90;51.90;;;;;;5033384;28;20227;-63
2021/10/25 01:59:08;;;;;;;8.75;6.75;;;24.90;51.80;;;;;;5025122;28;20303;-64
2021/10/25 02:01:38;;;;;;;8.80;6.70;;;24.90;51.60;;;;;;5016959;28;20224;-61
2021/10/25 02:04:09;;;;;;;7.38;6.03;;;25.00;51.50;;;;;;5012965;28;20284;-52
2021/10/25 02:06:41;;;;;;;8.38;6.03;;;25.00;51.40;;;;;;5033356;28;20750;-63
2021/10/25 02:09:12;;;;;;;9.15;6.07;;;24.90;51.40;;;;;;5033092;28;20712;-60
2021/10/25 02:11:42;;;;;;;7.40;6.35;;;25.00;51.40;;;;;;5006685;28;20312;-64
2021/10/25 02:14:13;;;;;;;9.25;6.50;;;25.00;51.40;;;;;;5023315;28;20657;-59
2021/10/25 02:16:44;;;;;;;8.07;5.50;;;25.00;51.30;;;;;;5020446;28;20250;-60
2021/10/25 02:19:14;;;;;;;9.13;5.72;;;25.00;51.30;;;;;;5025598;28;20227;-54
2021/10/25 02:21:47;;;;;;;6.65;5.43;;;25.10;51.40;;;;;;5025670;28;20311;-63
2021/10/25 02:24:17;;;;;;;8.65;5.80;;;25.10;51.50;;;;;;5034087;28;20631;-63
2021/10/25 02:26:47;;;;;;;8.77;5.80;;;25.10;51.50;;;;;;5015549;28;20311;-51
2021/10/25 02:29:18;;;;;;;6.32;4.90;;;25.10;51.50;;;;;;5022352;28;20279;-61
2021/10/25 02:31:49;;;;;;;7.68;5.57;;;25.10;51.30;;;;;;5023994;28;21436;-57
2021/10/25 02:34:20;;;;;;;5.80;4.90;;;25.20;51.40;;;;;;5017682;28;20228;-63
2021/10/25 02:36:53;;;;;;;7.63;5.50;;;25.20;51.30;;;;;;5023555;28;20659;-53
2021/10/25 02:39:24;;;;;;;7.10;5.38;;;25.20;51.30;;;;;;5028615;28;20283;-62
2021/10/25 02:41:55;;;;;;;9.23;5.82;;;25.30;51.30;;;;;;5023892;28;20702;-63
2021/10/25 02:44:25;;;;;;;9.10;5.88;;;25.30;51.30;;;;;;5019809;28;20220;-54
2021/10/25 02:46:56;;;;;;;9.32;5.80;;;25.30;51.10;;;;;;5024824;28;20255;-56
2021/10/25 02:49:27;;;;;;;7.10;5.03;;;25.30;50.90;;;;;;5016365;28;20291;-57
2021/10/25 02:51:59;;;;;;;9.18;5.90;;;25.30;50.90;;;;;;5013760;28;20315;-58
2021/10/25 02:54:30;;;;;;;7.50;4.93;;;25.30;50.90;;;;;;5010044;28;20299;-63
2021/10/25 02:57:00;;;;;;;7.82;4.85;;;25.40;51.00;;;;;;5015907;28;20236;-61
2021/10/25 02:59:31;;;;;;;7.82;5.45;;;25.40;51.00;;;;;;5017035;28;20208;-57
2021/10/25 03:02:01;;;;;;;8.10;5.72;;;25.40;51.00;;;;;;5020205;28;20311;-57
2021/10/25 03:04:32;;;;;;;7.32;3.70;;;25.40;50.90;;;;;;5028785;28;20229;-67
2021/10/25 03:07:04;;;;;;;8.65;4.80;;;25.40;50.20;;;;;;5029677;28;20317;-65
2021/10/25 03:09:35;;;;;;;20.25;12.48;;;25.30;49.10;;;;;;5034542;28;20231;-69
2021/10/25 03:12:07;;;;;;;19.92;11.27;;;25.20;49.40;;;;;;5028606;28;20306;-53
2021/10/25 03:14:37;;;;;;;15.02;7.45;;;25.10;49.70;;;;;;5028366;28;20236;-71
2021/10/25 03:17:08;;;;;;;13.90;5.55;;;25.00;50.00;;;;;;5038373;28;20635;-71
2021/10/25 03:19:40;;;;;;;15.98;6.90;;;24.90;50.10;;;;;;5036733;28;20451;-68
2021/10/25 03:22:13;;;;;;;16.92;6.10;;;24.80;50.70;;;;;;5025746;28;20647;-65
2021/10/25 03:24:45;;;;;;;12.98;5.38;;;24.80;51.00;;;;;;5020148;28;20322;-55
2021/10/25 03:27:15;;;;;;;20.85;8.93;;;24.70;51.20;;;;;;5019173;28;20251;-60
2021/10/25 03:29:46;;;;;;;20.38;10.57;;;24.60;51.00;;;;;;5029536;28;20636;-60
2021/10/25 03:32:16;;;;;;;17.88;8.77;;;24.50;51.20;;;;;;5031835;28;20258;-60
2021/10/25 03:34:47;;;;;;;12.43;6.00;;;24.50;51.40;;;;;;5030058;28;20207;-60
2021/10/25 03:37:20;;;;;;;12.07;5.20;;;24.40;51.50;;;;;;5016887;28;20296;-60
2021/10/25 03:39:52;;;;;;;14.82;6.22;;;24.30;52.00;;;;;;5021383;28;20562;-53
2021/10/25 03:42:26;;;;;;;12.40;5.47;;;24.10;52.30;;;;;;5021966;28;20220;-65
2021/10/25 03:45:06;;;;;;;13.00;5.78;;;24.00;52.50;;;;;;5029243;28;20626;-63
2021/10/25 03:47:40;;;;;;;11.68;5.50;;;24.00;52.60;;;;;;5032363;28;20215;-65
2021/10/25 03:50:13;;;;;;;12.52;5.22;;;24.00;52.70;;;;;;5042581;28;20632;-66
2021/10/25 03:52:50;;;;;;;14.63;5.10;;;24.10;52.80;;;;;;5020919;28;20221;-63
2021/10/25 03:55:26;;;;;;;10.95;4.97;;;24.10;52.80;;;;;;5008972;28;20233;-66
2021/10/25 04:03:57;;;;;;;9.23;4.28;;;24.30;52.70;;;;;;4954690;28;20606;-66
2021/10/25 04:26:02;;;;;;;10.35;4.40;;;24.70;51.90;;;;;;5041498;28;20705;-64
2021/10/25 04:28:34;;;;;;;7.93;4.18;;;24.70;51.70;;;;;;5029185;28;20199;-65
2021/10/25 04:31:04;;;;;;;7.75;4.10;;;24.80;51.70;;;;;;5029660;28;20310;-65
2021/10/25 04:33:35;;;;;;;7.45;3.92;;;24.80;51.60;;;;;;5028103;28;20309;-61
2021/10/25 04:36:05;;;;;;;6.03;4.00;;;24.90;51.50;;;;;;5028926;28;20231;-65
2021/10/25 04:38:36;;;;;;;6.70;3.70;;;24.90;51.30;;;;;;5026641;28;20240;-65
2021/10/25 04:41:08;;;;;;;6.28;3.42;;;24.90;51.20;;;;;;5015298;28;20251;-68
2021/10/25 04:43:39;;;;;;;7.30;3.97;;;24.90;51.20;;;;;;5029179;28;20246;-64
2021/10/25 04:46:10;;;;;;;7.25;3.60;;;25.00;51.20;;;;;;5011613;28;20231;-66
2021/10/25 04:48:41;;;;;;;8.63;4.18;;;25.00;51.10;;;;;;5030444;28;20230;-67
2021/10/25 04:51:12;;;;;;;8.65;3.80;;;25.00;51.00;;;;;;5028842;28;20246;-65
2021/10/25 04:53:42;;;;;;;7.20;3.63;;;25.00;50.80;;;;;;5027882;28;20227;-65
2021/10/25 04:56:15;;;;;;;8.57;3.88;;;25.10;50.80;;;;;;5021520;28;20300;-64
2021/10/25 04:58:45;;;;;;;7.57;3.45;;;25.10;50.70;;;;;;5025720;28;20287;-66
2021/10/25 05:01:16;;;;;;;6.65;3.50;;;25.10;50.80;;;;;;5026409;28;20244;-66
2021/10/25 05:03:46;;;;;;;6.30;3.53;;;25.10;50.80;;;;;;5016758;28;20236;-62
2021/10/25 05:06:18;;;;;;;8.07;3.95;;;25.10;50.70;;;;;;5023160;28;20277;-51
2021/10/25 05:08:49;;;;;;;6.47;3.05;;;25.10;50.60;;;;;;5016078;28;20193;-62
2021/10/25 05:11:21;;;;;;;8.40;3.65;;;25.10;50.60;;;;;;5030003;28;20220;-63
2021/10/25 05:13:52;;;;;;;9.32;3.60;;;25.10;50.50;;;;;;5033150;28;20228;-63
2021/10/25 05:16:22;;;;;;;8.23;3.67;;;25.10;50.50;;;;;;5028810;28;20606;-63
2021/10/25 05:18:53;;;;;;;6.13;3.40;;;25.00;50.30;;;;;;5031761;28;20239;-59
2021/10/25 05:21:23;;;;;;;5.88;3.25;;;25.10;50.40;;;;;;5032133;28;20303;-64
2021/10/25 05:23:54;;;;;;;8.07;3.83;;;25.00;50.40;;;;;;5032142;28;20231;-63
2021/10/25 05:26:28;;;;;;;6.97;3.60;;;25.00;50.40;;;;;;5030846;28;20295;-60
2021/10/25 05:28:59;;;;;;;7.53;3.03;;;25.00;50.40;;;;;;5046870;28;20208;-64
2021/10/25 05:31:29;;;;;;;5.43;3.55;;;25.00;51.00;;;;;;5032331;28;20239;-63
2021/10/25 05:34:01;;;;;;;5.63;3.00;;;25.00;50.40;;;;;;5020309;28;20192;-63
2021/10/25 05:36:31;;;;;;;6.13;3.40;;;25.00;50.40;;;;;;5032851;28;20200;-61
2021/10/25 05:39:02;;;;;;;5.07;3.17;;;24.90;50.40;;;;;;5031825;28;20243;-64
2021/10/25 05:41:34;;;;;;;3.92;2.65;;;24.90;50.40;;;;;;5024470;28;20255;-60
2021/10/25 05:44:04;;;;;;;4.70;3.17;;;24.90;50.40;;;;;;5027722;28;20664;-63
2021/10/25 05:46:35;;;;;;;4.45;2.60;;;24.90;50.40;;;;;;5031729;28;20247;-62
2021/10/25 05:49:06;;;;;;;6.80;3.42;;;24.90;50.40;;;;;;5031796;28;20197;-59
2021/10/25 05:51:36;;;;;;;5.63;3.35;;;24.90;50.40;;;;;;5032008;28;20220;-59
2021/10/25 05:54:07;;;;;;;7.80;3.38;;;24.90;50.40;;;;;;5031763;28;20224;-63
2021/10/25 05:56:39;;;;;;;6.47;3.35;;;24.90;50.40;;;;;;5032554;28;20537;-59
2021/10/25 05:59:09;;;;;;;5.35;3.30;;;24.80;50.30;;;;;;5043629;28;20294;-60
2021/10/25 06:01:42;;;;;;;4.03;2.90;;;24.80;50.40;;;;;;5025032;28;20256;-51
2021/10/25 06:04:13;;;;;;;5.78;3.13;;;24.70;50.30;;;;;;5026905;28;20228;-63
2021/10/25 06:06:44;;;;;;;5.18;3.17;;;24.80;50.30;;;;;;5035253;28;20231;-60
2021/10/25 06:09:14;;;;;;;4.22;2.85;;;24.70;50.30;;;;;;5043985;28;20334;-59
2021/10/25 06:11:47;;;;;;;5.38;3.05;;;24.70;50.30;;;;;;5044642;28;20299;-57
2021/10/25 06:14:26;;;;;;;7.03;3.33;;;24.70;50.40;;;;;;5031093;28;20196;-54
2021/10/25 06:16:58;;;;;;;5.18;2.90;;;24.70;50.50;;;;;;5031847;28;20192;-63
2021/10/25 06:19:29;;;;;;;5.10;3.33;;;24.60;50.40;;;;;;5032495;28;20197;-63
2021/10/25 06:21:59;;;;;;;4.70;3.13;;;24.60;50.50;;;;;;5030616;28;20260;-59
2021/10/25 06:24:30;;;;;;;5.40;3.00;;;24.60;50.50;;;;;;5030499;28;20196;-60
2021/10/25 06:27:02;;;;;;;5.88;3.00;;;24.60;50.50;;;;;;5031232;28;20259;-57
2021/10/25 06:29:33;;;;;;;4.90;3.05;;;24.60;50.60;;;;;;5030587;28;20246;-56
2021/10/25 06:32:03;;;;;;;4.32;2.50;;;24.60;50.50;;;;;;5028631;28;20217;-61
2021/10/25 06:34:38;;;;;;;5.20;2.88;;;24.50;50.60;;;;;;5019962;28;20200;-63
2021/10/25 06:37:08;;;;;;;3.90;2.80;;;24.50;50.50;;;;;;5027073;28;20255;-63
2021/10/25 06:39:40;;;;;;;5.15;3.05;;;24.50;50.50;;;;;;5031021;28;20200;-59
2021/10/25 06:42:13;;;;;;;3.45;2.28;;;24.50;50.50;;;;;;5031442;28;20222;-63
2021/10/25 06:44:49;;;;;;;6.30;2.92;;;24.50;50.60;;;;;;5014370;28;20287;-62
2021/10/25 06:47:21;;;;;;;5.90;3.00;;;24.40;50.50;;;;;;5029514;28;20226;-61
2021/10/25 06:49:52;;;;;;;3.63;2.45;;;24.40;50.50;;;;;;5030279;28;20287;-63
2021/10/25 06:52:22;;;;;;;6.00;2.80;;;24.30;50.50;;;;;;5029890;28;20243;-63
2021/10/25 06:54:53;;;;;;;4.78;2.80;;;24.30;50.40;;;;;;5030636;28;20746;-64
2021/10/25 06:57:25;;;;;;;5.70;2.78;;;24.30;50.50;;;;;;5030388;28;20331;-63
2021/10/25 06:59:56;;;;;;;4.30;2.60;;;24.30;50.50;;;;;;5030507;28;20207;-60
2021/10/25 07:02:26;;;;;;;5.80;2.88;;;24.30;50.60;;;;;;5026903;28;20252;-63
2021/10/25 07:04:57;;;;;;;5.28;2.80;;;24.20;50.60;;;;;;5032445;28;20257;-63
2021/10/25 07:07:28;;;;;;;5.25;2.70;;;24.20;50.60;;;;;;5032000;28;20259;-63
2021/10/25 07:09:59;;;;;;;3.78;2.67;;;24.20;50.70;;;;;;5030455;28;20211;-61
2021/10/25 07:12:31;;;;;;;5.78;2.55;;;24.20;50.80;;;;;;5029413;28;20252;-61
2021/10/25 07:15:02;;;;;;;3.90;2.58;;;24.10;50.70;;;;;;5029979;28;20240;-54
2021/10/25 07:17:38;;;;;;;4.78;2.60;;;24.20;50.80;;;;;;5030325;28;20196;-58
2021/10/25 07:20:24;;;;;;;5.50;2.63;;;24.10;50.70;;;;;;5029178;28;20282;-53
2021/10/25 07:59:47;;;;;;;4.15;2.63;;;23.70;50.90;;;;;;5092169;28;20216;-57
2021/10/25 08:08:02;;;;;;;4.15;2.63;;;23.70;51.10;;;;;;5091080;28;20545;-60
2021/10/25 08:10:36;;;;;;;3.25;2.50;;;23.70;51.00;;;;;;5099616;28;20190;-61
2021/10/25 08:13:12;;;;;;;4.55;2.20;;;23.60;51.00;;;;;;5104311;28;20212;-60
2021/10/25 08:15:45;;;;;;;3.72;2.33;;;23.60;51.00;;;;;;5103072;28;20564;-60
2021/10/25 08:18:32;;;;;;;2.63;2.30;;;23.60;51.10;;;;;;5104312;28;20225;-59
2021/10/25 08:21:03;;;;;;;3.08;2.10;;;23.60;51.10;;;;;;5103803;28;20222;-55
2021/10/25 08:23:33;;;;;;;2.63;2.17;;;23.50;51.00;;;;;;5105876;28;20280;-40
2021/10/25 08:26:05;;;;;;;3.17;2.45;;;23.50;51.10;;;;;;5103450;28;20263;-62
2021/10/25 08:28:35;;;;;;;3.38;2.38;;;23.50;51.10;;;;;;5104096;28;20212;-57
2021/10/25 08:31:09;;;;;;;2.42;2.00;;;23.50;51.10;;;;;;5104581;28;20641;-46
2021/10/25 08:36:36;;;;;;;3.25;2.42;;;23.40;51.00;;;;;;5059354;28;20561;-63
2021/10/25 08:41:54;;;;;;;3.20;2.40;;;23.40;51.10;;;;;;5086402;28;20228;-53
2021/10/25 08:44:25;;;;;;;3.67;2.30;;;23.40;51.20;;;;;;5089862;28;20214;-56
2021/10/25 08:46:59;;;;;;;3.80;2.50;;;23.40;51.20;;;;;;5090283;28;20230;-41
2021/10/25 08:49:30;;;;;;;2.53;2.13;;;23.30;51.20;;;;;;5084347;22;20409;-44
2021/10/25 08:52:01;;;;;;;3.17;2.33;;;23.30;51.20;;;;;;5046945;28;20220;-39
2021/10/25 08:54:33;;;;;;;2.75;2.35;;;23.30;51.30;;;;;;5045631;28;20195;-47
2021/10/25 08:57:03;;;;;;;2.95;2.38;;;23.30;51.20;;;;;;5037446;28;20589;-40
2021/10/25 08:59:34;;;;;;;3.15;2.28;;;23.30;51.20;;;;;;5035848;28;20224;-47
2021/10/25 09:02:12;;;;;;;2.55;2.25;;;23.20;51.20;;;;;;5045809;28;20223;-43
2021/10/25 09:04:42;;;;;;;3.97;2.28;;;23.20;51.20;;;;;;5050286;28;20284;-42
2021/10/25 09:07:13;;;;;;;2.60;2.15;;;23.20;51.20;;;;;;5051456;28;20230;-43
2021/10/25 09:09:47;;;;;;;2.97;2.20;;;23.20;51.20;;;;;;5047525;28;20199;-41
2021/10/25 09:12:18;;;;;;;2.30;2.05;;;23.20;51.20;;;;;;5047700;28;20305;-44
2021/10/25 09:14:50;;;;;;;2.17;1.98;;;23.10;51.10;;;;;;5042210;28;20235;-47
2021/10/25 09:17:23;;;;;;;3.65;2.40;;;23.10;51.20;;;;;;5041500;28;20664;-43
2021/10/25 09:19:53;;;;;;;2.45;2.22;;;23.10;51.20;;;;;;5050318;28;20231;-41
2021/10/25 09:22:25;;;;;;;2.78;2.30;;;23.10;51.20;;;;;;5049488;28;20860;-45
2021/10/25 09:24:56;;;;;;;2.58;2.10;;;23.10;51.20;;;;;;5049405;28;20250;-41
2021/10/25 09:27:33;;;;;;;2.30;1.95;;;23.00;51.20;;;;;;5035918;28;20275;-39
2021/10/25 09:30:12;;;;;;;3.05;2.15;;;23.00;51.20;;;;;;5049940;28;20195;-43
2021/10/25 09:32:45;;;;;;;2.58;2.05;;;23.00;51.30;;;;;;5034653;28;20219;-46
2021/10/25 09:35:19;;;;;;;2.85;2.40;;;23.00;51.30;;;;;;5050087;28;20850;-39
2021/10/25 09:37:56;;;;;;;3.33;1.95;;;23.00;51.90;;;;;;5049859;28;20286;-45
2021/10/25 09:40:35;;;;;;;3.22;2.10;;;23.00;51.30;;;;;;5060270;28;20199;-39
2021/10/25 09:43:21;;;;;;;3.45;2.20;;;22.90;51.30;;;;;;5053847;28;20282;-46
2021/10/25 09:51:13;;;;;;;2.28;2.08;;;22.90;51.20;;;;;;5994715;23;20232;-56
2021/10/25 09:53:49;;;;;;;2.20;1.92;;;22.90;51.30;;;;;;5009370;28;20563;-61
2021/10/25 09:56:44;;;;;;;3.35;2.13;;;22.90;51.90;;;;;;5008836;28;20594;-55
2021/10/25 09:59:36;;;;;;;2.10;1.90;;;22.80;51.20;;;;;;5010938;28;20207;-56
2021/10/25 10:02:15;;;;;;;3.10;2.08;;;22.80;51.30;;;;;;5011911;28;20225;-61
2021/10/25 10:04:57;;;;;;;2.92;2.35;;;22.80;51.30;;;;;;5010764;28;20688;-46
2021/10/25 10:07:45;;;;;;;2.90;2.10;;;22.70;51.30;;;;;;5010153;28;20727;-56
2021/10/25 10:10:25;;;;;;;2.47;2.17;;;22.70;51.30;;;;;;5010772;28;20555;-62
2021/10/25 10:13:16;;;;;;;2.28;2.08;;;22.70;51.30;;;;;;5010624;28;20585;-52
2021/10/25 10:16:08;;;;;;;2.47;2.13;;;22.70;51.50;;;;;;4990456;28;20212;-60
2021/10/25 10:18:56;;;;;;;2.28;2.08;;;22.70;51.40;;;;;;4991661;28;20672;-58
2021/10/25 10:21:42;;;;;;;2.20;1.90;;;22.60;51.40;;;;;;4991476;28;20677;-54
2021/10/25 10:24:24;;;;;;;2.05;1.65;;;22.60;51.40;;;;;;5000816;28;20287;-59
2021/10/25 10:27:04;;;;;;;2.38;1.95;;;22.60;51.50;;;;;;5010480;28;20283;-57
2021/10/25 10:29:47;;;;;;;2.33;2.13;;;22.60;51.50;;;;;;5010341;28;20284;-58
2021/10/25 10:32:28;;;;;;;2.20;2.00;;;22.60;51.50;;;;;;5010254;28;20565;-62
2021/10/25 10:35:12;;;;;;;3.63;2.10;;;22.60;51.50;;;;;;5010493;28;20544;-61
2021/10/25 10:38:07;;;;;;;2.40;1.90;;;22.50;51.40;;;;;;5010423;28;20200;-63
2021/10/25 10:40:59;;;;;;;3.30;1.90;;;22.50;51.40;;;;;;5011234;28;20224;-57
2021/10/25 10:44:00;;;;;;;2.10;1.60;;;22.50;51.40;;;;;;5009761;28;20539;-53
2021/10/25 10:46:49;;;;;;;2.60;2.00;;;22.50;51.40;;;;;;5009416;28;20219;-60
2021/10/25 10:49:27;;;;;;;2.60;1.88;;;22.50;51.50;;;;;;5010846;28;20286;-62
2021/10/25 10:52:22;;;;;;;2.47;2.28;;;22.50;51.50;;;;;;5006203;28;20317;-53
2021/10/25 10:55:02;;;;;;;2.30;2.10;;;22.40;51.50;;;;;;5030672;28;20336;-63
2021/10/25 10:58:11;;;;;;;2.83;1.90;;;22.40;51.50;;;;;;5038600;28;20769;-63
2021/10/25 11:00:48;;;;;;;3.28;2.00;;;22.40;51.50;;;;;;5024907;28;20267;-63
2021/10/25 11:03:25;;;;;;;2.00;1.80;;;22.40;51.50;;;;;;5035419;28;20196;-62
2021/10/25 11:06:00;;;;;;;2.25;2.05;;;22.30;51.60;;;;;;5030578;28;20794;-63
2021/10/25 11:08:34;;;;;;;2.72;2.03;;;22.30;51.60;;;;;;5027698;28;20234;-63
2021/10/25 11:11:06;;;;;;;3.28;1.90;;;22.30;51.70;;;;;;5034203;28;20247;-59
2021/10/25 11:13:44;;;;;;;2.20;1.98;;;22.30;51.70;;;;;;5034605;28;20196;-55
2021/10/25 11:16:19;;;;;;;2.13;1.92;;;22.30;51.60;;;;;;5033319;28;20207;-65
2021/10/25 11:18:52;;;;;;;2.58;1.73;;;22.30;51.70;;;;;;5035814;28;20237;-61
2021/10/25 11:21:24;;;;;;;1.98;1.80;;;22.20;51.70;;;;;;5042771;28;20254;-65
2021/10/25 11:23:57;;;;;;;2.50;1.67;;;22.20;51.60;;;;;;5043336;28;20210;-63
2021/10/25 11:26:29;;;;;;;2.67;2.00;;;22.20;51.60;;;;;;5013844;28;20658;-63
2021/10/25 11:29:10;;;;;;;2.10;1.90;;;22.20;51.70;;;;;;5027669;28;20246;-56
2021/10/25 11:31:43;;;;;;;2.40;1.90;;;22.20;51.70;;;;;;5040706;28;20220;-62
2021/10/25 11:34:18;;;;;;;2.22;1.80;;;22.20;51.70;;;;;;5025767;28;20226;-59
2021/10/25 11:37:02;;;;;;;1.85;1.70;;;22.10;51.70;;;;;;5037426;28;20832;-54
2021/10/25 11:39:39;;;;;;;2.03;1.73;;;22.10;52.30;;;;;;5040762;28;20195;-62
2021/10/25 11:42:13;;;;;;;3.10;2.00;;;22.10;51.70;;;;;;5032544;28;20227;-61
2021/10/25 11:44:46;;;;;;;3.17;1.80;;;22.10;51.70;;;;;;5027653;28;20631;-62
2021/10/25 11:47:29;;;;;;;2.72;1.67;;;22.10;51.90;;;;;;5024189;28;20809;-54
2021/10/25 11:50:03;;;;;;;2.13;1.80;;;22.10;51.80;;;;;;5028504;28;20249;-62
2021/10/25 11:52:38;;;;;;;2.63;2.00;;;22.10;51.80;;;;;;5029474;28;20219;-62
2021/10/25 11:55:10;;;;;;;2.83;2.00;;;22.00;51.70;;;;;;5029192;28;20759;-60
2021/10/25 11:57:47;;;;;;;1.98;1.88;;;22.00;51.80;;;;;;5027055;28;20288;-62
2021/10/25 12:00:21;;;;;;;2.35;1.80;;;22.00;51.80;;;;;;5026111;28;20199;-61
2021/10/25 12:02:52;;;;;;;2.38;1.67;;;22.00;51.80;;;;;;5028247;28;20207;-62
2021/10/25 12:05:23;;;;;;;1.98;1.75;;;22.00;51.80;;;;;;5039250;28;20384;-57
2021/10/25 12:07:56;;;;;;;2.60;2.10;;;22.00;51.80;;;;;;5027738;28;20700;-54
2021/10/25 12:10:28;;;;;;;2.17;1.77;;;22.00;51.90;;;;;;5035954;28;20202;-62
2021/10/25 12:13:01;;;;;;;2.45;1.92;;;21.90;51.80;;;;;;5038573;28;20255;-57
2021/10/25 12:15:35;;;;;;;2.40;1.80;;;21.90;51.80;;;;;;5031277;28;20196;-62
2021/10/25 12:18:07;;;;;;;2.83;1.92;;;21.90;51.80;;;;;;5030517;28;20231;-62
2021/10/25 12:20:39;;;;;;;2.20;2.00;;;21.90;51.90;;;;;;5031468;28;20227;-61
2021/10/25 12:23:13;;;;;;;2.03;1.65;;;21.90;51.90;;;;;;5014728;28;20241;-62
2021/10/25 12:25:45;;;;;;;1.92;1.77;;;21.90;51.90;;;;;;5048464;28;20706;-62
2021/10/25 12:28:17;;;;;;;2.17;2.00;;;21.80;51.90;;;;;;5046870;28;20235;-62
2021/10/25 12:30:52;;;;;;;2.20;2.00;;;21.80;51.90;;;;;;5031489;28;20687;-63
2021/10/25 12:33:25;;;;;;;2.40;2.00;;;21.80;51.90;;;;;;5040263;28;20210;-53
2021/10/25 12:35:55;;;;;;;2.63;2.00;;;21.80;51.90;;;;;;5037755;28;20232;-53
2021/10/25 12:38:26;;;;;;;2.67;2.20;;;21.80;52.00;;;;;;5031150;28;20227;-62
2021/10/25 12:41:03;;;;;;;1.95;1.63;;;21.80;52.00;;;;;;5033491;28;20262;-46
2021/10/25 12:43:41;;;;;;;3.13;2.00;;;21.80;52.00;;;;;;5043242;28;20200;-63
2021/10/25 12:46:17;;;;;;;2.58;2.10;;;21.70;51.90;;;;;;5030968;28;20721;-63
2021/10/25 12:48:50;;;;;;;2.30;2.10;;;21.70;51.90;;;;;;5029622;28;20214;-55
2021/10/25 12:51:22;;;;;;;2.83;2.20;;;21.70;51.90;;;;;;5030800;28;20224;-62
2021/10/25 12:53:53;;;;;;;2.92;1.85;;;21.70;52.00;;;;;;5032077;28;20636;-61
2021/10/25 12:56:28;;;;;;;2.38;1.98;;;21.70;52.00;;;;;;5043976;28;20203;-60
2021/10/25 12:59:03;;;;;;;2.15;1.95;;;21.70;52.00;;;;;;5043974;28;20669;-56
2021/10/25 13:01:35;;;;;;;2.63;2.15;;;21.70;52.00;;;;;;5043934;28;20254;-59
2021/10/25 13:04:07;;;;;;;3.08;2.35;;;21.70;52.00;;;;;;5037941;28;20231;-61
2021/10/25 13:06:38;;;;;;;2.05;1.95;;;21.60;52.00;;;;;;5036759;28;20325;-62
2021/10/25 13:09:09;;;;;;;2.05;1.83;;;21.60;52.00;;;;;;5031156;28;20192;-53
2021/10/25 13:11:41;;;;;;;2.72;2.10;;;21.60;52.00;;;;;;5043646;28;20220;-52
2021/10/25 13:14:12;;;;;;;2.78;2.50;;;21.60;52.00;;;;;;5013183;28;20225;-62
2021/10/25 13:16:46;;;;;;;2.30;2.10;;;21.50;52.00;;;;;;5047740;28;20282;-62
2021/10/25 13:19:18;;;;;;;2.22;1.92;;;21.50;52.00;;;;;;5031680;28;20203;-61
2021/10/25 13:21:49;;;;;;;3.72;2.13;;;21.60;52.10;;;;;;5030531;28;20255;-63
2021/10/25 13:24:20;;;;;;;2.42;2.22;;;21.50;52.10;;;;;;5030625;28;20664;-57
2021/10/25 13:26:51;;;;;;;2.03;1.83;;;21.50;52.10;;;;;;5031435;28;20331;-56
2021/10/25 13:29:21;;;;;;;3.80;2.10;;;21.50;52.10;;;;;;5029708;28;20219;-62
2021/10/25 13:31:54;;;;;;;2.03;1.83;;;21.50;52.10;;;;;;5029202;28;20212;-63
2021/10/25 13:34:24;;;;;;;3.30;2.17;;;21.50;52.00;;;;;;5029346;28;20298;-58
2021/10/25 13:36:55;;;;;;;3.20;2.00;;;21.50;52.10;;;;;;5027577;28;20246;-52
2021/10/25 13:39:25;;;;;;;1.95;1.85;;;21.50;52.00;;;;;;5030907;28;20200;-55
2021/10/25 13:41:56;;;;;;;2.58;1.77;;;21.40;52.00;;;;;;5031280;28;20216;-56
2021/10/25 13:44:26;;;;;;;2.65;2.45;;;21.50;52.10;;;;;;5030228;28;20436;-60
2021/10/25 13:46:59;;;;;;;2.47;2.13;;;21.40;52.10;;;;;;5029730;28;20311;-59
2021/10/25 13:49:29;;;;;;;2.42;2.10;;;21.40;52.10;;;;;;5036814;28;20231;-59
2021/10/25 13:51:59;;;;;;;2.72;2.00;;;21.40;52.10;;;;;;5038161;28;20251;-49
2021/10/25 13:54:31;;;;;;;2.80;2.20;;;21.40;52.10;;;;;;5027919;28;20519;-62
2021/10/25 13:57:06;;;;;;;2.20;2.00;;;21.30;52.10;;;;;;5017070;28;20208;-62
2021/10/25 13:59:38;;;;;;;2.40;2.10;;;21.30;52.40;;;;;;5029532;28;20200;-58
2021/10/25 14:02:12;;;;;;;2.72;1.98;;;21.30;52.20;;;;;;5026203;28;20217;-56
2021/10/25 14:04:47;;;;;;;2.28;2.00;;;21.30;52.20;;;;;;5031264;28;20559;-60
2021/10/25 14:07:20;;;;;;;2.85;2.05;;;21.30;52.20;;;;;;5044222;28;20311;-49
2021/10/25 14:09:54;;;;;;;2.40;2.15;;;21.30;52.20;;;;;;5042258;28;20203;-60
2021/10/25 14:12:27;;;;;;;2.30;2.10;;;21.30;52.20;;;;;;5042354;28;20225;-61
2021/10/25 14:15:04;;;;;;;2.50;2.10;;;21.30;52.20;;;;;;5035947;28;20192;-55
2021/10/25 14:17:36;;;;;;;2.90;2.28;;;21.30;52.20;;;;;;5031239;28;20202;-56
2021/10/25 14:20:08;;;;;;;2.00;1.80;;;21.20;52.20;;;;;;5031457;28;20238;-59
2021/10/25 14:22:38;;;;;;;2.20;2.00;;;21.30;52.20;;;;;;5042196;28;20262;-61
2021/10/25 14:25:09;;;;;;;1.83;1.73;;;21.20;52.20;;;;;;5044092;28;20236;-62
2021/10/25 14:27:40;;;;;;;2.88;2.28;;;21.20;52.20;;;;;;5028702;28;20256;-58
2021/10/25 14:30:12;;;;;;;2.25;2.05;;;21.20;52.20;;;;;;5046345;28;20243;-61
2021/10/25 14:32:45;;;;;;;2.15;1.95;;;21.20;52.20;;;;;;5038815;28;20350;-60
2021/10/25 14:35:15;;;;;;;2.20;2.00;;;21.20;52.30;;;;;;5028416;28;20243;-61